Terminal Aerodrome Forecast
Issued by NWS

Home | Current Version | Previous Version | Text Only | Print | Product List | Glossary On
Versions: 1 2 3 4 5 6 7 8 9 10 11 12 13 14 15 16 17
000
FTUS43 KOAX 250500
TAFSNY
TAF
KSNY 250520Z 2506/2606 23008KT P6SM FEW150
     FM251000 32012KT P6SM SCT200
     FM251800 07011KT P6SM SCT100
     FM252300 13007KT P6SM VCSH SCT100 BKN150=

USA.gov is the U.S. government's official web portal to all federal, state and local government web resources and services.